createdAt,value
2019-02-21T00:01:15.814Z,3.70
2019-02-21T00:03:50.331Z,3.55
2019-02-21T00:06:24.838Z,3.68
2019-02-21T00:08:59.587Z,3.63
2019-02-21T00:11:33.526Z,3.25
2019-02-21T00:14:07.819Z,3.25
2019-02-21T00:16:42.318Z,3.68
2019-02-21T00:19:16.647Z,3.78
2019-02-21T00:21:50.699Z,3.59
2019-02-21T00:24:25.151Z,3.47
2019-02-21T00:26:59.675Z,3.20
2019-02-21T00:29:34.588Z,3.07
2019-02-21T00:32:09.322Z,3.07
2019-02-21T00:34:43.783Z,2.87
2019-02-21T00:37:18.060Z,2.80
2019-02-21T00:39:52.554Z,2.82
2019-02-21T00:42:27.832Z,2.84
2019-02-21T00:45:02.530Z,2.84
2019-02-21T00:47:36.843Z,2.86
2019-02-21T00:50:11.536Z,2.91
2019-02-21T00:52:45.927Z,3.22
2019-02-21T00:55:20.514Z,3.10
2019-02-21T00:57:54.980Z,3.06
2019-02-21T01:00:29.649Z,2.62
2019-02-21T01:03:03.811Z,2.61
2019-02-21T01:05:38.320Z,2.69
2019-02-21T01:08:12.676Z,2.86
2019-02-21T01:10:47.070Z,3.10
2019-02-21T01:13:21.511Z,2.87
2019-02-21T01:15:55.883Z,3.09
2019-02-21T01:18:30.443Z,2.93
2019-02-21T01:21:05.323Z,2.65
2019-02-21T01:23:39.677Z,2.91
2019-02-21T01:26:14.556Z,2.89
2019-02-21T01:28:48.987Z,2.77
2019-02-21T01:31:23.326Z,2.73
2019-02-21T01:33:57.787Z,2.77
2019-02-21T01:36:32.183Z,2.58
2019-02-21T01:39:07.903Z,2.41
2019-02-21T01:41:43.043Z,2.28
2019-02-21T01:44:17.848Z,2.40
2019-02-21T01:46:52.468Z,2.59
2019-02-21T01:49:26.784Z,2.97
2019-02-21T01:52:01.631Z,2.88
2019-02-21T01:54:36.330Z,2.61
2019-02-21T01:57:10.652Z,2.68
2019-02-21T01:59:44.397Z,2.45
2019-02-21T02:02:18.590Z,2.48
2019-02-21T02:04:53.325Z,2.14
2019-02-21T02:07:28.170Z,2.17
2019-02-21T02:11:47.686Z,2.45
2019-02-21T02:14:22.153Z,2.53
2019-02-21T02:16:58.640Z,2.35
2019-02-21T02:19:32.895Z,2.47
2019-02-21T02:22:07.325Z,2.47
2019-02-21T02:24:41.805Z,2.26
2019-02-21T02:27:16.421Z,2.10
2019-02-21T02:29:50.783Z,2.02
2019-02-21T02:32:24.495Z,2.04
2019-02-21T02:34:59.905Z,2.20
2019-02-21T02:37:34.813Z,2.20
2019-02-21T02:40:09.529Z,2.36
2019-02-21T02:42:43.797Z,2.28
2019-02-21T02:45:18.324Z,2.36
2019-02-21T02:47:52.721Z,2.43
2019-02-21T02:50:26.276Z,2.27
2019-02-21T02:53:00.695Z,2.30
2019-02-21T02:55:34.145Z,2.39
2019-02-21T02:58:08.533Z,2.25
2019-02-21T03:00:43.005Z,2.42
2019-02-21T03:03:17.574Z,2.42
2019-02-21T03:05:51.976Z,2.10
2019-02-21T03:08:26.320Z,2.10
2019-02-21T03:11:00.884Z,2.27
2019-02-21T03:13:36.509Z,1.93
2019-02-21T03:16:10.818Z,1.94
2019-02-21T03:18:45.041Z,1.88
2019-02-21T03:21:19.524Z,1.70
2019-02-21T03:23:54.312Z,1.55
2019-02-21T03:26:28.663Z,1.55
2019-02-21T03:29:02.977Z,1.68
2019-02-21T03:31:53.635Z,1.76
2019-02-21T03:34:13.826Z,2.03
2019-02-21T03:36:48.085Z,2.53
2019-02-21T03:39:22.665Z,2.59
2019-02-21T03:41:57.668Z,2.71
2019-02-21T03:44:31.466Z,2.78
2019-02-21T03:47:05.947Z,2.70
2019-02-21T03:49:40.595Z,2.70
2019-02-21T03:52:14.519Z,3.17
2019-02-21T03:54:48.476Z,3.27
2019-02-21T03:57:22.949Z,3.50
2019-02-21T03:59:57.546Z,3.25
2019-02-21T04:02:32.318Z,3.24
2019-02-21T04:05:07.021Z,3.24
2019-02-21T04:07:41.600Z,3.43
2019-02-21T04:10:16.126Z,3.37
2019-02-21T04:12:50.625Z,3.37
2019-02-21T04:15:25.329Z,3.01
2019-02-21T04:17:59.933Z,3.01
2019-02-21T04:20:34.524Z,2.71
2019-02-21T04:23:08.795Z,2.84
2019-02-21T04:25:43.105Z,2.72
2019-02-21T04:28:17.612Z,2.73
2019-02-21T04:30:51.460Z,2.66
2019-02-21T04:33:25.786Z,2.91
2019-02-21T04:36:00.325Z,2.89
2019-02-21T04:38:34.864Z,2.97
2019-02-21T04:41:09.333Z,3.02
2019-02-21T04:43:43.863Z,3.27
2019-02-21T04:46:18.309Z,3.35
2019-02-21T04:48:52.814Z,3.19
2019-02-21T04:51:27.052Z,3.21
2019-02-21T04:54:01.675Z,3.50
2019-02-21T04:56:35.967Z,3.65
2019-02-21T04:59:10.598Z,3.65
2019-02-21T05:01:45.050Z,3.52
2019-02-21T05:04:19.671Z,3.52
2019-02-21T05:06:53.616Z,3.54
2019-02-21T05:09:27.955Z,3.92
2019-02-21T05:12:02.646Z,3.92
2019-02-21T05:14:36.273Z,3.92
2019-02-21T05:17:10.639Z,4.06
2019-02-21T05:19:45.044Z,3.53
2019-02-21T05:22:19.642Z,3.53
2019-02-21T05:24:53.962Z,3.86
2019-02-21T05:27:32.694Z,3.86
2019-02-21T05:30:09.634Z,3.74
2019-02-21T05:33:07.560Z,3.88
2019-02-21T05:35:55.468Z,3.69
2019-02-21T05:38:49.874Z,3.69
2019-02-21T05:41:44.537Z,3.63
2019-02-21T05:44:25.197Z,3.42
2019-02-21T05:47:12.837Z,3.42
2019-02-21T05:50:06.832Z,3.61
2019-02-21T05:52:51.010Z,3.67
2019-02-21T05:55:45.213Z,3.34
2019-02-21T05:58:38.109Z,3.30
2019-02-21T06:01:31.132Z,3.24
2019-02-21T06:04:23.979Z,3.17
2019-02-21T06:07:09.855Z,3.07
2019-02-21T06:09:50.780Z,3.13
2019-02-21T06:12:44.862Z,3.20
2019-02-21T06:15:44.755Z,3.00
2019-02-21T06:18:37.127Z,2.83
2019-02-21T06:21:39.571Z,2.93
2019-02-21T06:24:29.329Z,3.33
2019-02-21T06:27:21.314Z,3.33
2019-02-21T06:29:59.713Z,3.40
2019-02-21T06:32:34.334Z,3.52
2019-02-21T06:35:09.331Z,3.51
2019-02-21T06:37:43.632Z,3.33
2019-02-21T06:40:17.525Z,3.56
2019-02-21T06:42:52.027Z,3.34
2019-02-21T06:45:26.871Z,3.34
2019-02-21T06:48:01.451Z,3.39
2019-02-21T06:50:35.980Z,3.19
2019-02-21T06:53:10.568Z,3.31
2019-02-21T06:55:45.169Z,3.29
2019-02-21T06:58:19.646Z,3.29
2019-02-21T07:00:54.147Z,3.44
2019-02-21T07:03:29.117Z,3.44
2019-02-21T07:06:05.069Z,3.61
2019-02-21T07:08:40.316Z,3.82
2019-02-21T07:11:15.050Z,3.96
2019-02-21T07:13:49.677Z,4.17
2019-02-21T07:16:24.109Z,4.12
2019-02-21T07:18:58.547Z,4.23
2019-02-21T07:21:33.132Z,4.78
2019-02-21T07:24:07.736Z,4.78
2019-02-21T07:26:42.811Z,5.15
2019-02-21T07:29:17.556Z,5.36
2019-02-21T07:31:52.109Z,5.79
2019-02-21T07:34:26.811Z,5.79
2019-02-21T07:37:01.654Z,6.35
2019-02-21T07:39:37.454Z,6.56
2019-02-21T07:42:12.317Z,6.75
2019-02-21T07:44:47.108Z,6.28
2019-02-21T07:47:22.329Z,6.25
2019-02-21T07:49:56.986Z,6.44
2019-02-21T07:52:31.334Z,6.80
2019-02-21T07:55:06.136Z,6.95
2019-02-21T07:57:40.836Z,7.14
2019-02-21T08:00:15.490Z,7.03
2019-02-21T08:02:51.855Z,6.84
2019-02-21T08:05:26.656Z,7.07
2019-02-21T08:08:01.003Z,7.40
2019-02-21T08:10:37.521Z,7.79
2019-02-21T08:13:12.506Z,8.56
2019-02-21T08:15:47.745Z,8.32
2019-02-21T08:18:22.830Z,8.32
2019-02-21T08:20:58.026Z,8.81
2019-02-21T08:23:32.663Z,9.34
2019-02-21T08:26:09.544Z,9.45
2019-02-21T08:28:43.706Z,9.57
2019-02-21T08:31:18.710Z,10.17
2019-02-21T08:34:04.289Z,10.68
2019-02-21T08:36:39.277Z,10.48
2019-02-21T08:39:14.325Z,10.76
2019-02-21T08:41:49.199Z,13.08
2019-02-21T08:44:24.637Z,14.67
2019-02-21T08:46:58.760Z,14.91
2019-02-21T08:49:32.526Z,14.76
2019-02-21T08:52:07.311Z,16.31
2019-02-21T08:54:41.769Z,16.31
2019-02-21T08:57:19.461Z,16.55
2019-02-21T08:59:53.147Z,16.31
2019-02-21T09:02:28.518Z,16.31
2019-02-21T09:05:02.468Z,17.57
2019-02-21T09:07:37.139Z,17.28
2019-02-21T09:10:12.653Z,17.28
2019-02-21T09:12:48.524Z,18.37
2019-02-21T09:15:22.832Z,19.37
2019-02-21T09:17:57.435Z,20.21
2019-02-21T09:20:32.312Z,20.82
2019-02-21T09:23:06.998Z,21.83
2019-02-21T09:25:41.664Z,21.15
2019-02-21T09:28:16.315Z,21.90
2019-02-21T09:30:51.745Z,22.44
2019-02-21T09:33:26.340Z,23.43
2019-02-21T09:36:00.839Z,23.70
2019-02-21T09:38:35.565Z,22.65
2019-02-21T09:41:10.498Z,22.99
2019-02-21T09:43:45.118Z,23.27
2019-02-21T09:46:19.609Z,23.27
2019-02-21T09:48:54.420Z,22.98
2019-02-21T09:51:29.004Z,22.98
2019-02-21T09:54:03.583Z,22.15
2019-02-21T09:56:38.313Z,22.41
2019-02-21T09:59:12.834Z,22.41
2019-02-21T10:01:47.390Z,22.88
2019-02-21T10:04:31.583Z,22.89
2019-02-21T10:06:58.484Z,23.08
2019-02-21T10:09:33.306Z,22.19
2019-02-21T10:12:07.604Z,23.50
2019-02-21T10:14:43.142Z,24.33
2019-02-21T10:17:17.776Z,24.33
2019-02-21T10:19:52.110Z,24.51
2019-02-21T10:22:26.827Z,25.45
2019-02-21T10:25:01.524Z,26.05
2019-02-21T10:27:36.477Z,26.63
2019-02-21T10:30:14.509Z,26.66
2019-02-21T10:32:48.902Z,26.66
2019-02-21T10:35:23.308Z,26.73
2019-02-21T10:37:57.801Z,27.06
2019-02-21T10:40:33.432Z,25.79
2019-02-21T10:43:07.480Z,24.54
2019-02-21T10:45:47.696Z,24.37
2019-02-21T10:48:18.789Z,24.48
2019-02-21T10:50:55.740Z,24.74
2019-02-21T10:53:30.313Z,25.81
2019-02-21T10:56:04.796Z,26.67
2019-02-21T10:58:39.311Z,26.89
2019-02-21T11:01:14.084Z,26.88
2019-02-21T11:03:48.792Z,28.33
2019-02-21T11:06:23.581Z,28.73
2019-02-21T11:08:58.293Z,26.77
2019-02-21T11:11:33.070Z,26.77
2019-02-21T11:14:23.819Z,26.76
2019-02-21T11:16:58.307Z,27.00
2019-02-21T11:19:32.820Z,27.98
2019-02-21T11:22:07.525Z,28.89
2019-02-21T11:24:41.591Z,26.64
2019-02-21T11:27:16.308Z,26.64
2019-02-21T11:29:51.092Z,26.81
2019-02-21T11:32:26.637Z,26.36
2019-02-21T11:35:06.216Z,24.90
2019-02-21T11:37:43.316Z,24.96
2019-02-21T11:40:15.834Z,25.26
2019-02-21T11:43:09.655Z,24.44
2019-02-21T11:45:53.421Z,23.14
2019-02-21T11:48:20.799Z,24.40
2019-02-21T11:50:55.550Z,25.69
2019-02-21T11:53:30.150Z,27.12
2019-02-21T11:56:04.576Z,27.12
2019-02-21T11:58:38.527Z,28.02
2019-02-21T12:01:13.313Z,27.50
2019-02-21T12:03:47.721Z,26.06
2019-02-21T12:06:22.421Z,25.69
2019-02-21T12:08:57.017Z,26.14
2019-02-21T12:11:31.521Z,25.74
2019-02-21T12:14:06.526Z,26.29
2019-02-21T12:16:40.529Z,27.06
2019-02-21T12:19:15.318Z,27.14
2019-02-21T12:21:58.623Z,27.14
2019-02-21T12:24:26.700Z,27.75
2019-02-21T12:27:00.491Z,28.58
2019-02-21T12:29:35.028Z,27.47
2019-02-21T12:32:09.870Z,27.47
2019-02-21T12:34:44.559Z,27.81
2019-02-21T12:37:18.270Z,27.82
2019-02-21T12:39:53.073Z,28.18
2019-02-21T12:42:27.596Z,27.16
2019-02-21T12:45:01.484Z,25.85
2019-02-21T12:47:36.826Z,25.95
2019-02-21T12:50:11.807Z,26.19
2019-02-21T12:52:46.330Z,23.95
2019-02-21T12:58:19.022Z,22.45
2019-02-21T13:00:54.411Z,22.45
2019-02-21T13:03:30.017Z,22.54
2019-02-21T13:06:04.534Z,22.54
2019-02-21T13:08:38.982Z,22.94
2019-02-21T13:11:13.501Z,22.94
2019-02-21T13:13:48.188Z,22.68
2019-02-21T13:16:24.089Z,22.68
2019-02-21T13:18:58.831Z,22.90
2019-02-21T13:21:33.512Z,22.42
2019-02-21T13:24:07.939Z,22.64
2019-02-21T13:26:42.448Z,22.23
2019-02-21T13:29:17.312Z,22.42
2019-02-21T13:31:51.827Z,22.42
2019-02-21T13:34:27.452Z,22.62
2019-02-21T13:37:01.970Z,22.70
2019-02-21T13:40:26.851Z,22.52
2019-02-21T13:43:01.553Z,22.19
2019-02-21T13:45:35.414Z,21.68
2019-02-21T13:48:10.009Z,22.32
2019-02-21T13:50:44.782Z,22.32
2019-02-21T13:53:19.531Z,22.98
2019-02-21T13:55:54.341Z,23.05
2019-02-21T13:58:28.861Z,22.80
2019-02-21T14:01:03.821Z,22.95
2019-02-21T14:03:38.912Z,22.04
2019-02-21T14:06:13.449Z,22.49
2019-02-21T14:08:48.062Z,22.27
2019-02-21T14:11:22.807Z,22.19
2019-02-21T14:13:57.614Z,21.88
2019-02-21T14:16:32.141Z,21.01
2019-02-21T14:19:06.871Z,21.01
2019-02-21T14:21:43.595Z,20.28
2019-02-21T14:24:18.442Z,19.07
2019-02-21T14:26:52.809Z,19.07
2019-02-21T14:29:38.432Z,18.70
2019-02-21T14:32:04.023Z,18.49
2019-02-21T14:34:38.912Z,18.27
2019-02-21T14:37:13.543Z,19.08
2019-02-21T14:39:47.470Z,18.84
2019-02-21T14:42:22.442Z,18.84
2019-02-21T14:44:56.847Z,19.12
2019-02-21T14:47:33.527Z,18.73
2019-02-21T14:50:08.128Z,18.85
2019-02-21T14:52:43.342Z,19.19
2019-02-21T14:55:18.608Z,18.92
2019-02-21T14:57:52.529Z,18.41
2019-02-21T15:00:27.355Z,19.03
2019-02-21T15:03:02.707Z,19.03
2019-02-21T15:05:38.776Z,18.87
2019-02-21T15:08:16.890Z,18.72
2019-02-21T15:10:52.800Z,18.67
2019-02-21T15:13:27.953Z,18.07
2019-02-21T15:16:02.586Z,17.71
2019-02-21T15:18:39.494Z,17.73
2019-02-21T15:21:13.412Z,17.52
2019-02-21T15:23:48.532Z,17.80
2019-02-21T15:26:23.028Z,17.86
2019-02-21T15:28:59.981Z,17.86
2019-02-21T15:31:34.562Z,17.65
2019-02-21T15:34:08.470Z,17.97
2019-02-21T15:36:43.473Z,17.42
2019-02-21T15:39:18.303Z,17.45
2019-02-21T15:41:53.098Z,17.45
2019-02-21T15:44:27.633Z,17.14
2019-02-21T15:47:02.047Z,16.86
2019-02-21T15:49:36.893Z,17.00
2019-02-21T15:52:21.926Z,17.19
2019-02-21T15:54:48.107Z,16.95
2019-02-21T15:57:22.833Z,17.17
2019-02-21T15:59:58.573Z,16.53
2019-02-21T16:02:32.519Z,16.30
2019-02-21T16:05:08.102Z,16.57
2019-02-21T16:07:43.315Z,16.15
2019-02-21T16:10:22.536Z,15.89
2019-02-21T16:12:57.085Z,15.83
2019-02-21T16:15:32.074Z,15.67
2019-02-21T16:18:07.335Z,16.08
2019-02-21T16:20:42.061Z,15.77
2019-02-21T16:23:19.280Z,15.22
2019-02-21T16:25:53.706Z,14.84
2019-02-21T16:28:28.310Z,14.61
2019-02-21T16:31:02.890Z,14.59
2019-02-21T16:33:38.535Z,14.80
2019-02-21T16:36:12.430Z,14.61
2019-02-21T16:38:47.065Z,14.61
2019-02-21T16:41:22.065Z,14.50
2019-02-21T16:43:57.140Z,14.24
2019-02-21T16:46:32.122Z,14.44
2019-02-21T16:49:07.456Z,14.08
2019-02-21T16:51:41.773Z,13.81
2019-02-21T16:54:16.376Z,13.50
2019-02-21T16:56:51.047Z,13.22
2019-02-21T16:59:25.896Z,12.99
2019-02-21T17:02:00.532Z,12.82
2019-02-21T17:04:35.568Z,12.45
2019-02-21T17:07:15.982Z,12.60
2019-02-21T17:09:46.065Z,12.60
2019-02-21T17:12:20.471Z,12.48
2019-02-21T17:14:55.307Z,12.05
2019-02-21T17:17:30.163Z,12.05
2019-02-21T17:20:07.110Z,11.72
2019-02-21T17:22:41.643Z,11.65
2019-02-21T17:25:16.308Z,11.42
2019-02-21T17:27:51.067Z,11.60
2019-02-21T17:30:25.610Z,11.37
2019-02-21T17:32:59.649Z,11.22
2019-02-21T17:35:33.604Z,11.30
2019-02-21T17:38:07.752Z,11.30
2019-02-21T17:40:42.778Z,11.47
2019-02-21T17:43:17.454Z,11.22
2019-02-21T17:45:52.122Z,11.32
2019-02-21T17:48:26.660Z,11.32
2019-02-21T17:51:00.722Z,11.39
2019-02-21T17:53:35.324Z,11.32
2019-02-21T17:56:10.126Z,11.67
2019-02-21T17:58:44.693Z,11.91
2019-02-21T18:01:18.434Z,11.75
2019-02-21T18:03:53.165Z,11.75
2019-02-21T18:06:27.502Z,11.75
2019-02-21T18:09:03.669Z,11.28
2019-02-21T18:11:40.187Z,11.37
2019-02-21T18:14:18.125Z,11.37
2019-02-21T18:16:52.555Z,11.36
2019-02-21T18:19:28.123Z,11.65
2019-02-21T18:22:02.741Z,11.65
2019-02-21T18:24:37.838Z,11.74
2019-02-21T18:27:12.526Z,11.70
2019-02-21T18:29:47.615Z,11.73
2019-02-21T18:32:21.556Z,11.73
2019-02-21T18:34:55.531Z,11.76
2019-02-21T18:37:30.104Z,11.63
2019-02-21T18:40:16.625Z,11.63
2019-02-21T18:42:43.672Z,11.61
2019-02-21T18:45:18.574Z,11.66
2019-02-21T18:47:52.713Z,11.66
2019-02-21T18:50:37.662Z,11.94
2019-02-21T18:53:03.912Z,11.58
2019-02-21T18:55:38.522Z,11.58
2019-02-21T18:58:14.306Z,11.67
2019-02-21T19:00:49.462Z,11.80
2019-02-21T19:03:30.304Z,11.80
2019-02-21T19:06:05.089Z,12.00
2019-02-21T19:08:39.775Z,11.75
2019-02-21T19:11:14.507Z,11.81
2019-02-21T19:13:49.008Z,11.91
2019-02-21T19:16:23.494Z,11.80
2019-02-21T19:18:58.320Z,11.85
2019-02-21T19:21:33.045Z,11.85
2019-02-21T19:24:08.040Z,11.99
2019-02-21T19:26:42.842Z,11.65
2019-02-21T19:29:17.605Z,11.67
2019-02-21T19:31:52.424Z,11.32
2019-02-21T19:34:27.083Z,11.32
2019-02-21T19:37:02.316Z,11.65
2019-02-21T19:39:37.164Z,11.89
2019-02-21T19:42:11.847Z,11.94
2019-02-21T19:44:46.336Z,11.82
2019-02-21T19:47:20.824Z,11.39
2019-02-21T19:49:55.873Z,11.64
2019-02-21T19:52:30.750Z,11.75
2019-02-21T19:55:05.585Z,11.65
2019-02-21T19:57:39.492Z,11.80
2019-02-21T20:00:17.498Z,11.88
2019-02-21T20:02:51.935Z,11.88
2019-02-21T20:05:27.444Z,11.71
2019-02-21T20:08:08.746Z,11.37
2019-02-21T20:10:39.064Z,11.37
2019-02-21T20:13:14.912Z,11.36
2019-02-21T20:15:49.893Z,11.26
2019-02-21T20:18:24.706Z,11.22
2019-02-21T20:20:59.542Z,11.15
2019-02-21T20:23:34.319Z,10.89
2019-02-21T20:26:17.909Z,10.89
2019-02-21T20:28:45.834Z,11.19
2019-02-21T20:31:20.568Z,11.29
2019-02-21T20:33:54.648Z,11.38
2019-02-21T20:36:28.621Z,11.25
2019-02-21T20:39:04.546Z,11.38
2019-02-21T20:41:41.149Z,11.38
2019-02-21T20:44:16.466Z,11.62
2019-02-21T20:46:51.601Z,11.58
2019-02-21T20:49:26.319Z,11.58
2019-02-21T20:52:01.131Z,11.39
2019-02-21T20:54:35.804Z,11.18
2019-02-21T20:57:10.485Z,11.23
2019-02-21T20:59:45.158Z,11.27
2019-02-21T21:02:19.738Z,11.41
2019-02-21T21:04:54.694Z,11.37
2019-02-21T21:07:29.327Z,11.50
2019-02-21T21:10:08.735Z,11.52
2019-02-21T21:12:43.723Z,11.63
2019-02-21T21:15:18.590Z,11.74
2019-02-21T21:17:52.561Z,11.66
2019-02-21T21:20:26.535Z,11.52
2019-02-21T21:23:00.539Z,11.52
2019-02-21T21:25:35.307Z,11.29
2019-02-21T21:28:10.074Z,11.29
2019-02-21T21:30:45.179Z,11.34
2019-02-21T21:33:20.168Z,11.44
2019-02-21T21:35:54.841Z,11.48
2019-02-21T21:38:29.675Z,11.30
2019-02-21T21:41:04.584Z,11.44
2019-02-21T21:43:39.324Z,11.04
2019-02-21T21:46:14.154Z,11.04
2019-02-21T21:48:48.886Z,10.98
2019-02-21T21:51:23.647Z,11.20
2019-02-21T21:53:57.556Z,11.07
2019-02-21T21:56:31.331Z,11.44
2019-02-21T21:59:05.862Z,11.44
2019-02-21T22:01:40.517Z,11.63
2019-02-21T22:04:16.317Z,11.39
2019-02-21T22:06:50.818Z,11.39
2019-02-21T22:09:25.497Z,11.12
2019-02-21T22:12:00.143Z,11.38
2019-02-21T22:14:34.610Z,11.38
2019-02-21T22:17:09.073Z,11.48
2019-02-21T22:19:43.826Z,11.48
2019-02-21T22:22:18.584Z,11.44
2019-02-21T22:24:53.164Z,11.54
2019-02-21T22:27:27.825Z,11.54
2019-02-21T22:30:02.369Z,11.57
2019-02-21T22:32:36.833Z,11.64
2019-02-21T22:35:11.520Z,11.55
2019-02-21T22:37:46.215Z,11.15
2019-02-21T22:40:21.132Z,11.15
2019-02-21T22:42:55.987Z,11.04
2019-02-21T22:45:31.616Z,11.16
2019-02-21T22:50:55.023Z,11.13
2019-02-21T22:53:29.654Z,11.22
2019-02-21T22:56:04.469Z,11.13
2019-02-21T22:58:45.114Z,11.15
2019-02-21T23:01:39.138Z,11.15
2019-02-21T23:04:51.039Z,11.08
2019-02-21T23:07:49.480Z,11.15
2019-02-21T23:10:24.190Z,11.34
2019-02-21T23:12:58.722Z,11.34
2019-02-21T23:15:33.105Z,11.25
2019-02-21T23:18:08.090Z,11.37
2019-02-21T23:20:43.319Z,11.23
2019-02-21T23:23:17.856Z,11.19
2019-02-21T23:25:52.309Z,11.11
2019-02-21T23:28:26.812Z,11.25
2019-02-21T23:31:01.521Z,11.42
2019-02-21T23:33:39.003Z,11.39
2019-02-21T23:36:14.076Z,11.36
2019-02-21T23:38:48.527Z,11.36
2019-02-21T23:41:23.160Z,11.37
2019-02-21T23:43:57.557Z,11.10
2019-02-21T23:46:32.153Z,11.10
2019-02-21T23:49:06.823Z,11.10
2019-02-21T23:51:41.438Z,11.12
2019-02-21T23:54:16.045Z,11.10
2019-02-21T23:56:50.633Z,11.30
2019-02-21T23:59:24.889Z,11.21
